Time;durP1;ratioP1;P1;durP2;ratioP2;P2;SDS_P1;SDS_P2;PMS_P1;PMS_P2;Temp;Humidity;BMP_temperature;BMP_pressure;BME280_temperature;BME280_humidity;BME280_pressure;Samples;Min_cycle;Max_cycle;Signal;HPM_P1;HPM_P2
2023/07/15 00:01:18;;;;;;;15.73;7.07;;;;;;;;;;6303873;22;20456;-67
2023/07/15 00:03:44;;;;;;;15.98;6.50;;;;;;;;;;6303617;22;20034;-67
2023/07/15 00:06:10;;;;;;;17.13;6.72;;;;;;;;;;6304554;22;20013;-67
2023/07/15 00:08:36;;;;;;;13.70;5.78;;;;;;;;;;6302559;22;20399;-67
2023/07/15 00:11:02;;;;;;;12.90;6.00;;;;;;;;;;6303845;22;20015;-67
2023/07/15 00:13:28;;;;;;;13.77;6.65;;;;;;;;;;6303168;22;20445;-65
2023/07/15 00:15:54;;;;;;;19.00;6.78;;;;;;;;;;6303989;22;20426;-67
2023/07/15 00:18:21;;;;;;;20.15;6.18;;;;;;;;;;6303627;22;20084;-67
2023/07/15 00:20:47;;;;;;;14.30;6.30;;;;;;;;;;6303498;22;20007;-66
2023/07/15 00:23:21;;;;;;;13.95;6.20;;;;;;;;;;6303182;22;20341;-67
2023/07/15 00:25:48;;;;;;;14.95;6.50;;;;;;;;;;6303922;22;20010;-67
2023/07/15 00:28:14;;;;;;;12.15;6.70;;;;;;;;;;6302970;22;20006;-67
2023/07/15 00:30:40;;;;;;;13.90;6.75;;;;;;;;;;6301677;22;20011;-67
2023/07/15 00:33:11;;;;;;;17.38;7.05;;;;;;;;;;6275718;22;20031;-67
2023/07/15 00:35:37;;;;;;;14.43;6.03;;;;;;;;;;6276383;22;20015;-67
2023/07/15 00:38:03;;;;;;;17.17;7.05;;;;;;;;;;6302158;22;20007;-67
2023/07/15 00:40:39;;;;;;;13.95;6.25;;;;;;;;;;6303177;22;20011;-66
2023/07/15 00:43:43;;;;;;;11.73;5.95;;;;;;;;;;6301126;22;20022;-67
2023/07/15 00:46:12;;;;;;;21.80;7.18;;;;;;;;;;6301821;22;20011;-67
2023/07/15 00:48:46;;;;;;;12.45;6.50;;;;;;;;;;6302316;22;20094;-67
2023/07/15 00:51:12;;;;;;;13.25;6.25;;;;;;;;;;6302679;22;20010;-67
2023/07/15 00:53:37;;;;;;;13.65;5.97;;;;;;;;;;6275784;22;20018;-67
2023/07/15 00:56:04;;;;;;;14.20;6.75;;;;;;;;;;6303811;22;20007;-68
2023/07/15 00:58:30;;;;;;;13.10;6.53;;;;;;;;;;6276239;22;20062;-67
2023/07/15 01:00:56;;;;;;;12.85;6.40;;;;;;;;;;6301903;22;20016;-67
2023/07/15 01:03:21;;;;;;;13.95;5.55;;;;;;;;;;6301141;22;20485;-67
2023/07/15 01:05:47;;;;;;;12.98;6.72;;;;;;;;;;6275760;22;20019;-67
2023/07/15 01:08:13;;;;;;;10.05;5.78;;;;;;;;;;6275841;22;20007;-67
2023/07/15 01:10:39;;;;;;;15.15;6.53;;;;;;;;;;6303651;22;20098;-67
2023/07/15 01:13:05;;;;;;;13.20;6.57;;;;;;;;;;6301529;22;20007;-67
2023/07/15 01:15:31;;;;;;;12.00;5.75;;;;;;;;;;6303773;22;20140;-67
2023/07/15 01:17:56;;;;;;;10.93;6.80;;;;;;;;;;6301313;22;20340;-67
2023/07/15 01:20:25;;;;;;;16.70;7.00;;;;;;;;;;6301559;22;20008;-67
2023/07/15 01:22:52;;;;;;;12.55;6.40;;;;;;;;;;6274674;22;20094;-66
2023/07/15 01:25:17;;;;;;;10.32;5.90;;;;;;;;;;6300683;22;20457;-67
2023/07/15 01:27:43;;;;;;;11.75;6.10;;;;;;;;;;6301761;22;20652;-67
2023/07/15 01:30:09;;;;;;;15.20;6.78;;;;;;;;;;6302229;22;20007;-67
2023/07/15 01:32:35;;;;;;;14.50;6.72;;;;;;;;;;6301656;22;19999;-67
2023/07/15 01:35:03;;;;;;;15.52;7.28;;;;;;;;;;6301149;22;20015;-67
2023/07/15 01:37:29;;;;;;;17.95;7.78;;;;;;;;;;6275497;22;20449;-66
2023/07/15 01:39:56;;;;;;;11.88;6.78;;;;;;;;;;6242628;22;20029;-67
2023/07/15 01:42:22;;;;;;;18.48;7.47;;;;;;;;;;6147445;22;20394;-67
2023/07/15 01:44:49;;;;;;;11.95;6.88;;;;;;;;;;6120621;22;20074;-67
2023/07/15 01:47:14;;;;;;;13.82;7.50;;;;;;;;;;6145939;22;20013;-67
2023/07/15 01:49:42;;;;;;;13.15;7.72;;;;;;;;;;6145819;22;20040;-68
2023/07/15 01:52:08;;;;;;;14.07;7.95;;;;;;;;;;6122358;22;20001;-67
2023/07/15 01:54:34;;;;;;;12.05;6.75;;;;;;;;;;6122384;23;20063;-66
2023/07/15 01:57:00;;;;;;;23.25;8.48;;;;;;;;;;6147774;22;20352;-66
2023/07/15 01:59:25;;;;;;;15.15;7.50;;;;;;;;;;6122273;22;20013;-67
2023/07/15 02:01:55;;;;;;;17.65;7.53;;;;;;;;;;6121663;22;20440;-67
2023/07/15 02:04:20;;;;;;;15.40;6.97;;;;;;;;;;6146469;22;20024;-68
2023/07/15 02:06:46;;;;;;;14.82;7.40;;;;;;;;;;6146818;22;20092;-67
2023/07/15 02:09:12;;;;;;;15.93;6.70;;;;;;;;;;6122601;22;20084;-66
2023/07/15 02:11:38;;;;;;;10.73;6.53;;;;;;;;;;6147853;23;20005;-68
2023/07/15 02:14:04;;;;;;;15.57;7.32;;;;;;;;;;6148299;23;20432;-67
2023/07/15 02:16:30;;;;;;;12.32;7.25;;;;;;;;;;6148365;23;20017;-67
2023/07/15 02:18:55;;;;;;;20.60;6.70;;;;;;;;;;6146323;23;20024;-67
2023/07/15 02:21:25;;;;;;;19.58;7.75;;;;;;;;;;6147920;23;20087;-67
2023/07/15 02:23:52;;;;;;;23.23;7.38;;;;;;;;;;6148328;22;20009;-67
2023/07/15 02:26:18;;;;;;;15.07;7.10;;;;;;;;;;6122132;22;20060;-66
2023/07/15 02:28:43;;;;;;;22.05;7.53;;;;;;;;;;6148121;22;20516;-67
2023/07/15 02:31:09;;;;;;;19.73;8.30;;;;;;;;;;6148345;22;20006;-67
2023/07/15 02:33:35;;;;;;;18.00;7.20;;;;;;;;;;6146061;22;20037;-67
2023/07/15 02:36:03;;;;;;;17.58;7.25;;;;;;;;;;6122646;22;20010;-67
2023/07/15 02:38:31;;;;;;;18.58;7.13;;;;;;;;;;6148384;23;20017;-67
2023/07/15 02:40:56;;;;;;;14.95;7.40;;;;;;;;;;6148452;23;20316;-67
2023/07/15 02:43:23;;;;;;;15.57;7.22;;;;;;;;;;6146057;22;20023;-67
2023/07/15 02:45:52;;;;;;;20.88;7.60;;;;;;;;;;6121938;22;20009;-67
2023/07/15 02:48:21;;;;;;;19.17;8.07;;;;;;;;;;6146213;22;20023;-66
2023/07/15 02:50:56;;;;;;;20.27;8.45;;;;;;;;;;6148585;23;20025;-67
2023/07/15 02:53:22;;;;;;;17.17;8.25;;;;;;;;;;6145712;23;20025;-67
2023/07/15 02:55:49;;;;;;;19.83;7.20;;;;;;;;;;6121753;23;20013;-67
2023/07/15 02:58:17;;;;;;;19.63;7.97;;;;;;;;;;6145787;22;20017;-67
2023/07/15 03:00:43;;;;;;;29.40;8.60;;;;;;;;;;6250395;22;20006;-67
2023/07/15 03:03:10;;;;;;;22.58;8.40;;;;;;;;;;6145880;22;20140;-67
2023/07/15 03:05:36;;;;;;;20.63;7.75;;;;;;;;;;6148036;23;20009;-67
2023/07/15 03:08:02;;;;;;;13.10;6.68;;;;;;;;;;6146469;23;20016;-67
2023/07/15 03:10:31;;;;;;;21.88;8.10;;;;;;;;;;6147574;23;20342;-67
2023/07/15 03:12:57;;;;;;;19.63;8.15;;;;;;;;;;6145542;23;20431;-67
2023/07/15 03:15:23;;;;;;;15.38;7.78;;;;;;;;;;6146698;22;20024;-67
2023/07/15 03:17:48;;;;;;;18.15;7.50;;;;;;;;;;6147965;22;20014;-67
2023/07/15 03:20:19;;;;;;;16.98;8.07;;;;;;;;;;6148419;22;20147;-67
2023/07/15 03:22:54;;;;;;;21.83;8.35;;;;;;;;;;6150978;22;20021;-67
2023/07/15 03:25:21;;;;;;;22.15;8.40;;;;;;;;;;6150941;23;20021;-68
2023/07/15 03:27:48;;;;;;;16.80;7.53;;;;;;;;;;6149716;23;20008;-67
2023/07/15 03:30:13;;;;;;;17.17;7.50;;;;;;;;;;6124363;23;20012;-67
2023/07/15 03:32:41;;;;;;;20.50;8.23;;;;;;;;;;6124055;23;20041;-67
2023/07/15 03:35:08;;;;;;;21.40;7.55;;;;;;;;;;6150367;22;20017;-67
2023/07/15 03:37:44;;;;;;;21.60;8.90;;;;;;;;;;6150565;23;20001;-67
2023/07/15 03:40:11;;;;;;;20.63;8.00;;;;;;;;;;6148902;22;20017;-66
2023/07/15 03:42:38;;;;;;;19.92;7.20;;;;;;;;;;6124254;23;20020;-67
2023/07/15 03:45:05;;;;;;;23.30;7.85;;;;;;;;;;6150133;23;20017;-66
2023/07/15 03:47:31;;;;;;;18.30;8.02;;;;;;;;;;6150383;23;20010;-66
2023/07/15 03:49:57;;;;;;;17.23;7.72;;;;;;;;;;6150869;23;20055;-68
2023/07/15 03:52:22;;;;;;;22.60;8.40;;;;;;;;;;6150737;22;20415;-68
2023/07/15 03:54:48;;;;;;;17.52;8.32;;;;;;;;;;6150011;22;20009;-67
2023/07/15 03:57:14;;;;;;;20.10;8.63;;;;;;;;;;6150234;22;20001;-67
2023/07/15 03:59:39;;;;;;;13.00;7.47;;;;;;;;;;6150872;22;20017;-67
2023/07/15 04:02:06;;;;;;;14.38;7.00;;;;;;;;;;6150665;22;20009;-67
2023/07/15 04:04:32;;;;;;;14.82;7.38;;;;;;;;;;6150377;23;20009;-67
2023/07/15 04:06:58;;;;;;;17.30;7.30;;;;;;;;;;6150590;22;20051;-67
2023/07/15 04:09:24;;;;;;;16.80;8.07;;;;;;;;;;6150066;23;20386;-67
2023/07/15 04:11:51;;;;;;;20.67;7.57;;;;;;;;;;6150437;23;20009;-67
2023/07/15 04:14:17;;;;;;;16.15;7.40;;;;;;;;;;6150214;23;20009;-68
2023/07/15 04:16:43;;;;;;;21.40;8.30;;;;;;;;;;6150133;22;20009;-67
2023/07/15 04:19:09;;;;;;;17.90;7.65;;;;;;;;;;6146625;23;20018;-67
2023/07/15 04:21:36;;;;;;;15.18;7.43;;;;;;;;;;6149509;23;20027;-67
2023/07/15 04:24:03;;;;;;;17.27;7.28;;;;;;;;;;6150443;23;20009;-68
2023/07/15 04:26:29;;;;;;;15.77;7.38;;;;;;;;;;6149687;22;20446;-68
2023/07/15 04:28:55;;;;;;;12.35;7.22;;;;;;;;;;6150101;23;20383;-68
2023/07/15 04:31:21;;;;;;;15.57;7.80;;;;;;;;;;6149684;23;20001;-68
2023/07/15 04:33:49;;;;;;;18.80;7.20;;;;;;;;;;6148996;22;20016;-68
2023/07/15 04:36:18;;;;;;;16.08;7.40;;;;;;;;;;6150271;22;20043;-67
2023/07/15 04:38:45;;;;;;;17.83;7.68;;;;;;;;;;6149928;22;20009;-67
2023/07/15 04:41:10;;;;;;;19.17;7.68;;;;;;;;;;6149831;23;20002;-69
2023/07/15 04:43:36;;;;;;;19.58;8.38;;;;;;;;;;6148817;22;20010;-67
2023/07/15 04:46:03;;;;;;;15.75;7.60;;;;;;;;;;6148596;22;20006;-67
2023/07/15 04:48:29;;;;;;;17.67;8.20;;;;;;;;;;6148299;22;20037;-67
2023/07/15 04:50:55;;;;;;;20.35;7.32;;;;;;;;;;6148501;22;20005;-68
2023/07/15 04:53:21;;;;;;;22.33;7.68;;;;;;;;;;6147764;23;20009;-67
2023/07/15 04:55:47;;;;;;;15.63;7.95;;;;;;;;;;6146895;23;20354;-68
2023/07/15 04:58:15;;;;;;;19.88;8.25;;;;;;;;;;6148065;23;20016;-68
2023/07/15 05:00:41;;;;;;;19.42;7.10;;;;;;;;;;6148213;23;20327;-68
2023/07/15 05:03:07;;;;;;;19.35;6.90;;;;;;;;;;6148190;23;20365;-66
2023/07/15 05:05:33;;;;;;;15.25;6.95;;;;;;;;;;6148139;23;20013;-68
2023/07/15 05:08:13;;;;;;;20.80;7.88;;;;;;;;;;6148051;22;20047;-67
2023/07/15 05:10:39;;;;;;;15.75;6.90;;;;;;;;;;6148312;23;20002;-69
2023/07/15 05:13:09;;;;;;;15.73;6.55;;;;;;;;;;6148541;22;20445;-68
2023/07/15 05:15:36;;;;;;;15.60;6.65;;;;;;;;;;6147343;23;20335;-68
2023/07/15 05:18:04;;;;;;;14.07;7.15;;;;;;;;;;6148216;23;20208;-68
2023/07/15 05:20:31;;;;;;;12.38;6.80;;;;;;;;;;6145535;23;20040;-68
2023/07/15 05:22:57;;;;;;;19.02;7.80;;;;;;;;;;6147517;22;20439;-68
2023/07/15 05:25:23;;;;;;;16.40;7.45;;;;;;;;;;6146053;22;20308;-68
2023/07/15 05:27:49;;;;;;;14.27;7.00;;;;;;;;;;6121532;23;20009;-68
2023/07/15 05:30:15;;;;;;;12.25;6.70;;;;;;;;;;6147933;22;20012;-66
2023/07/15 05:32:41;;;;;;;12.30;6.75;;;;;;;;;;6146970;23;20381;-67
2023/07/15 05:35:07;;;;;;;14.82;7.40;;;;;;;;;;6120952;22;20482;-68
2023/07/15 05:37:33;;;;;;;10.25;6.38;;;;;;;;;;6147378;23;20378;-68
2023/07/15 05:39:59;;;;;;;11.43;6.82;;;;;;;;;;6147173;23;20017;-68
2023/07/15 05:42:24;;;;;;;14.95;7.40;;;;;;;;;;6147245;22;20009;-67
2023/07/15 05:44:50;;;;;;;10.80;6.47;;;;;;;;;;6147508;22;20091;-67
2023/07/15 05:47:16;;;;;;;11.00;6.60;;;;;;;;;;6096383;22;1200247;-68
2023/07/15 05:49:42;;;;;;;14.93;7.03;;;;;;;;;;6149922;22;20006;-67
2023/07/15 05:52:08;;;;;;;10.48;6.43;;;;;;;;;;6149498;22;20036;-67
2023/07/15 05:54:34;;;;;;;15.48;7.35;;;;;;;;;;6149455;22;20013;-68
2023/07/15 05:57:00;;;;;;;20.60;7.40;;;;;;;;;;6147769;23;20067;-67
2023/07/15 05:59:25;;;;;;;18.65;8.38;;;;;;;;;;6149019;22;20016;-69
2023/07/15 06:01:51;;;;;;;19.92;7.28;;;;;;;;;;6148395;23;20044;-69
2023/07/15 06:04:17;;;;;;;16.67;7.65;;;;;;;;;;6123371;23;20442;-69
2023/07/15 06:06:42;;;;;;;14.68;7.13;;;;;;;;;;6149162;23;20005;-68
2023/07/15 06:09:08;;;;;;;14.60;7.18;;;;;;;;;;6149226;22;20068;-68
2023/07/15 06:11:34;;;;;;;13.43;7.15;;;;;;;;;;6148430;22;20392;-69
2023/07/15 06:14:03;;;;;;;15.45;6.88;;;;;;;;;;6149124;22;20020;-69
2023/07/15 06:16:29;;;;;;;15.57;6.68;;;;;;;;;;6149333;22;20008;-71
2023/07/15 06:18:55;;;;;;;11.95;6.63;;;;;;;;;;6149196;23;20035;-70
2023/07/15 06:21:21;;;;;;;12.18;6.57;;;;;;;;;;6149657;23;20009;-69
2023/07/15 06:23:46;;;;;;;9.18;6.43;;;;;;;;;;6150199;22;20006;-69
2023/07/15 06:26:12;;;;;;;18.60;7.75;;;;;;;;;;6150165;22;19997;-70
2023/07/15 06:28:39;;;;;;;11.18;6.60;;;;;;;;;;6150885;22;20021;-70
2023/07/15 06:31:09;;;;;;;9.55;6.75;;;;;;;;;;6150445;22;19994;-69
2023/07/15 06:33:36;;;;;;;9.50;6.63;;;;;;;;;;6149943;22;20506;-71
2023/07/15 06:36:03;;;;;;;12.27;6.05;;;;;;;;;;6124660;22;20084;-70
2023/07/15 06:38:29;;;;;;;11.40;6.90;;;;;;;;;;6150160;23;20013;-70
2023/07/15 06:40:58;;;;;;;9.52;6.15;;;;;;;;;;6148528;23;20006;-70
2023/07/15 06:43:24;;;;;;;16.80;7.53;;;;;;;;;;6150097;23;20035;-70
2023/07/15 06:45:49;;;;;;;14.63;7.63;;;;;;;;;;6124363;23;20475;-70
2023/07/15 06:48:17;;;;;;;9.23;6.57;;;;;;;;;;6150391;22;20010;-71
2023/07/15 06:50:43;;;;;;;13.45;6.93;;;;;;;;;;6150347;23;20032;-71
2023/07/15 06:53:09;;;;;;;9.68;6.68;;;;;;;;;;6150430;23;20014;-70
2023/07/15 06:55:35;;;;;;;12.57;6.78;;;;;;;;;;6148064;22;20431;-71
2023/07/15 06:58:02;;;;;;;11.35;6.90;;;;;;;;;;6149393;22;20257;-70
2023/07/15 07:00:28;;;;;;;14.73;6.82;;;;;;;;;;6149576;23;20002;-68
2023/07/15 07:02:54;;;;;;;12.10;7.10;;;;;;;;;;6148943;22;20016;-70
2023/07/15 07:05:20;;;;;;;15.20;7.72;;;;;;;;;;6149722;22;20009;-70
2023/07/15 07:07:46;;;;;;;10.77;6.90;;;;;;;;;;6149419;23;20049;-71
2023/07/15 07:10:12;;;;;;;14.18;7.60;;;;;;;;;;6149867;22;20004;-70
2023/07/15 07:12:38;;;;;;;13.75;6.93;;;;;;;;;;6148739;22;20092;-70
2023/07/15 07:15:05;;;;;;;16.90;7.35;;;;;;;;;;6123822;22;20006;-71
2023/07/15 07:17:31;;;;;;;11.88;6.95;;;;;;;;;;6150029;23;20446;-70
2023/07/15 07:19:56;;;;;;;12.02;7.97;;;;;;;;;;6148013;23;20013;-70
2023/07/15 07:22:22;;;;;;;13.13;6.72;;;;;;;;;;6149046;22;20056;-70
2023/07/15 07:24:49;;;;;;;10.02;7.30;;;;;;;;;;6148581;23;20009;-70
2023/07/15 07:27:15;;;;;;;10.38;6.93;;;;;;;;;;6148241;23;20088;-69
2023/07/15 07:29:41;;;;;;;11.27;7.15;;;;;;;;;;6148835;23;20005;-69
2023/07/15 07:32:07;;;;;;;11.70;7.38;;;;;;;;;;6147244;23;20434;-69
2023/07/15 07:34:35;;;;;;;12.73;7.20;;;;;;;;;;6148779;22;20005;-69
2023/07/15 07:37:01;;;;;;;11.98;7.03;;;;;;;;;;6149902;22;20084;-68
2023/07/15 07:39:27;;;;;;;14.95;6.63;;;;;;;;;;6147892;23;20356;-69
2023/07/15 07:41:54;;;;;;;12.90;7.30;;;;;;;;;;6147278;22;20020;-68
2023/07/15 07:44:21;;;;;;;11.70;7.20;;;;;;;;;;6149344;23;20449;-68
2023/07/15 07:46:47;;;;;;;14.13;7.15;;;;;;;;;;6149861;22;20014;-69
2023/07/15 07:49:12;;;;;;;16.00;7.80;;;;;;;;;;6149168;23;20005;-68
2023/07/15 07:51:38;;;;;;;14.50;6.95;;;;;;;;;;6149169;23;20009;-68
2023/07/15 07:54:04;;;;;;;13.70;7.80;;;;;;;;;;6149248;22;20021;-68
2023/07/15 07:56:29;;;;;;;12.05;7.65;;;;;;;;;;6148910;22;20328;-68
2023/07/15 07:58:57;;;;;;;13.88;7.38;;;;;;;;;;6149530;22;19997;-68
2023/07/15 08:01:27;;;;;;;12.75;8.35;;;;;;;;;;6149180;23;20014;-68
2023/07/15 08:03:55;;;;;;;12.73;7.28;;;;;;;;;;6148502;23;20002;-69
2023/07/15 08:06:21;;;;;;;14.27;7.20;;;;;;;;;;6149497;22;20343;-69
2023/07/15 08:08:47;;;;;;;13.20;7.88;;;;;;;;;;6148157;23;20021;-68
2023/07/15 08:11:13;;;;;;;12.27;7.53;;;;;;;;;;6148140;22;20005;-68
2023/07/15 08:13:38;;;;;;;10.93;6.93;;;;;;;;;;6149335;23;20048;-69
2023/07/15 08:16:04;;;;;;;10.98;7.72;;;;;;;;;;6150301;22;20021;-69
2023/07/15 08:18:30;;;;;;;9.95;7.05;;;;;;;;;;6148407;23;20340;-69
2023/07/15 08:20:56;;;;;;;12.82;7.43;;;;;;;;;;6149145;23;20081;-68
2023/07/15 08:23:22;;;;;;;13.15;7.35;;;;;;;;;;6149557;23;20031;-69
2023/07/15 08:25:48;;;;;;;10.73;7.32;;;;;;;;;;6149738;23;20019;-71
2023/07/15 08:28:13;;;;;;;14.38;7.07;;;;;;;;;;6150078;23;20006;-69
2023/07/15 08:30:39;;;;;;;14.63;7.10;;;;;;;;;;6149819;22;20037;-70
2023/07/15 08:33:05;;;;;;;8.88;6.72;;;;;;;;;;6149437;22;20005;-70
2023/07/15 08:35:35;;;;;;;11.80;7.05;;;;;;;;;;6150233;22;20425;-69
2023/07/15 08:38:01;;;;;;;12.52;7.00;;;;;;;;;;6123770;23;20010;-70
2023/07/15 08:40:27;;;;;;;13.18;6.78;;;;;;;;;;6149990;22;20017;-69
2023/07/15 08:42:55;;;;;;;12.95;7.30;;;;;;;;;;6149438;23;20304;-70
2023/07/15 08:45:24;;;;;;;11.52;7.18;;;;;;;;;;6149755;22;20014;-68
2023/07/15 08:47:50;;;;;;;15.55;7.43;;;;;;;;;;6149553;23;20146;-69
2023/07/15 08:50:17;;;;;;;12.25;6.90;;;;;;;;;;6124102;22;20005;-68
2023/07/15 08:52:44;;;;;;;12.05;7.00;;;;;;;;;;6149415;22;20381;-68
2023/07/15 08:55:11;;;;;;;9.95;6.90;;;;;;;;;;6149604;23;20096;-69
2023/07/15 08:57:36;;;;;;;12.65;7.20;;;;;;;;;;6150003;23;20059;-69
2023/07/15 09:00:10;;;;;;;11.63;6.70;;;;;;;;;;6148932;22;20060;-70
2023/07/15 09:02:37;;;;;;;11.55;7.30;;;;;;;;;;6149164;22;20010;-69
2023/07/15 09:05:09;;;;;;;11.82;7.30;;;;;;;;;;6148955;23;20423;-69
2023/07/15 09:07:55;;;;;;;13.43;7.22;;;;;;;;;;6147786;23;20060;-69
2023/07/15 09:10:21;;;;;;;13.63;7.82;;;;;;;;;;6149146;23;20048;-71
2023/07/15 09:12:52;;;;;;;18.38;8.05;;;;;;;;;;6149024;22;20066;-70
2023/07/15 09:15:18;;;;;;;12.50;6.93;;;;;;;;;;6149037;23;20009;-69
2023/07/15 09:17:54;;;;;;;10.18;6.57;;;;;;;;;;6148578;22;20418;-70
2023/07/15 09:20:22;;;;;;;13.38;7.60;;;;;;;;;;6149175;23;20048;-70
2023/07/15 09:23:01;;;;;;;11.25;7.22;;;;;;;;;;6148794;23;20013;-69
2023/07/15 09:25:27;;;;;;;12.80;6.97;;;;;;;;;;6148736;22;20410;-69
2023/07/15 09:27:53;;;;;;;12.88;7.85;;;;;;;;;;6149352;23;20428;-70
2023/07/15 09:30:20;;;;;;;14.27;7.88;;;;;;;;;;6148596;23;20402;-69
2023/07/15 09:32:46;;;;;;;12.55;7.22;;;;;;;;;;6148542;23;20028;-70
2023/07/15 09:35:14;;;;;;;16.95;7.78;;;;;;;;;;6149056;23;20084;-70
2023/07/15 09:37:40;;;;;;;13.00;7.18;;;;;;;;;;6143623;23;20276;-70
2023/07/15 09:40:10;;;;;;;10.95;7.30;;;;;;;;;;6147445;22;20035;-71
2023/07/15 09:42:55;;;;;;;14.32;7.05;;;;;;;;;;6123698;22;20018;-70
2023/07/15 09:45:32;;;;;;;14.65;7.13;;;;;;;;;;6149256;22;20021;-70
2023/07/15 09:47:59;;;;;;;12.55;7.40;;;;;;;;;;6148771;22;20066;-69
2023/07/15 09:50:25;;;;;;;11.10;7.25;;;;;;;;;;6149332;23;20002;-69
2023/07/15 09:52:54;;;;;;;13.68;7.88;;;;;;;;;;6149085;23;20006;-69
2023/07/15 09:55:22;;;;;;;13.43;6.93;;;;;;;;;;6149160;23;20014;-70
2023/07/15 09:58:08;;;;;;;13.82;7.07;;;;;;;;;;6149468;22;20395;-69
2023/07/15 10:00:38;;;;;;;9.35;6.93;;;;;;;;;;6150452;23;20141;-69
2023/07/15 10:03:05;;;;;;;9.82;7.20;;;;;;;;;;6149748;22;20041;-70
2023/07/15 10:05:32;;;;;;;11.75;6.75;;;;;;;;;;6149965;22;20096;-71
2023/07/15 10:07:58;;;;;;;16.63;7.20;;;;;;;;;;6150629;22;20101;-70
2023/07/15 10:10:23;;;;;;;15.40;7.03;;;;;;;;;;6149929;22;20006;-70
2023/07/15 10:12:50;;;;;;;21.08;6.80;;;;;;;;;;6150482;22;20014;-71
2023/07/15 10:15:17;;;;;;;11.02;7.10;;;;;;;;;;6150298;23;20484;-70
2023/07/15 10:17:45;;;;;;;11.38;7.07;;;;;;;;;;6150123;22;20016;-70
2023/07/15 10:20:11;;;;;;;17.05;7.30;;;;;;;;;;6148691;22;20403;-70
2023/07/15 10:22:39;;;;;;;16.38;7.65;;;;;;;;;;6149790;23;20320;-70
2023/07/15 10:25:09;;;;;;;10.25;6.47;;;;;;;;;;6149851;23;20010;-70
2023/07/15 10:27:35;;;;;;;9.52;6.43;;;;;;;;;;6150513;22;20006;-71
2023/07/15 10:30:19;;;;;;;11.50;6.78;;;;;;;;;;6150331;22;20337;-70
2023/07/15 10:33:00;;;;;;;11.30;6.88;;;;;;;;;;6151174;22;20016;-70
2023/07/15 10:35:28;;;;;;;10.85;6.70;;;;;;;;;;6150644;23;20084;-69
2023/07/15 10:37:55;;;;;;;14.60;6.97;;;;;;;;;;6150583;22;20403;-68
2023/07/15 10:40:51;;;;;;;13.48;6.95;;;;;;;;;;6150737;22;20017;-68
2023/07/15 10:43:21;;;;;;;13.43;7.35;;;;;;;;;;6149578;22;20016;-69
2023/07/15 10:45:54;;;;;;;12.15;7.28;;;;;;;;;;6148708;23;20309;-70
2023/07/15 10:48:21;;;;;;;12.30;6.85;;;;;;;;;;6149245;22;20052;-69
2023/07/15 10:50:50;;;;;;;9.50;6.55;;;;;;;;;;6150017;23;20029;-70
2023/07/15 10:53:22;;;;;;;16.02;7.78;;;;;;;;;;6149799;22;20063;-71
2023/07/15 10:55:57;;;;;;;11.93;7.22;;;;;;;;;;6149669;23;20014;-69
2023/07/15 10:58:24;;;;;;;10.10;7.00;;;;;;;;;;6149852;22;20016;-70
2023/07/15 11:00:50;;;;;;;16.75;7.00;;;;;;;;;;6149510;22;20020;-70
2023/07/15 11:03:19;;;;;;;9.48;7.18;;;;;;;;;;6149692;22;20295;-70
2023/07/15 11:05:46;;;;;;;11.80;7.22;;;;;;;;;;6149080;22;20075;-70
2023/07/15 11:08:11;;;;;;;15.45;7.60;;;;;;;;;;6149581;22;20006;-69
2023/07/15 11:10:37;;;;;;;10.55;6.47;;;;;;;;;;6149868;22;20076;-70
2023/07/15 11:13:17;;;;;;;14.88;7.32;;;;;;;;;;6149346;22;20357;-70
2023/07/15 11:15:46;;;;;;;11.13;7.35;;;;;;;;;;6149149;22;20017;-70
2023/07/15 11:18:17;;;;;;;14.35;7.30;;;;;;;;;;6148693;23;20014;-69
2023/07/15 11:20:46;;;;;;;14.48;6.82;;;;;;;;;;6150122;23;20470;-69
2023/07/15 11:23:13;;;;;;;14.60;7.22;;;;;;;;;;6149523;22;20020;-68
2023/07/15 11:25:39;;;;;;;11.57;6.65;;;;;;;;;;6150152;22;20001;-69
2023/07/15 11:28:05;;;;;;;7.95;6.80;;;;;;;;;;6149760;22;20014;-69
2023/07/15 11:30:35;;;;;;;11.93;7.40;;;;;;;;;;6149916;23;20455;-69
2023/07/15 11:33:02;;;;;;;15.23;7.20;;;;;;;;;;6149586;22;20014;-71
2023/07/15 11:35:36;;;;;;;10.35;7.15;;;;;;;;;;6149930;23;20009;-70
2023/07/15 11:38:11;;;;;;;13.25;7.60;;;;;;;;;;6150457;22;20009;-70
2023/07/15 11:40:59;;;;;;;13.43;7.03;;;;;;;;;;6149409;23;20010;-70
2023/07/15 11:43:27;;;;;;;11.82;7.15;;;;;;;;;;6149198;23;20010;-69
2023/07/15 11:45:55;;;;;;;13.95;7.22;;;;;;;;;;6147663;22;20427;-70
2023/07/15 11:48:36;;;;;;;10.63;7.25;;;;;;;;;;6147728;22;20272;-69
2023/07/15 11:51:06;;;;;;;12.38;6.75;;;;;;;;;;6148835;23;20008;-68
2023/07/15 11:53:34;;;;;;;16.48;7.63;;;;;;;;;;6149668;23;20462;-70
2023/07/15 11:56:00;;;;;;;16.70;7.53;;;;;;;;;;6148719;22;20127;-69
2023/07/15 11:58:43;;;;;;;10.40;6.88;;;;;;;;;;6150493;22;20339;-68
2023/07/15 12:01:15;;;;;;;13.93;7.10;;;;;;;;;;6149793;23;20041;-68
2023/07/15 12:03:40;;;;;;;15.23;7.68;;;;;;;;;;6149509;23;20096;-70
2023/07/15 12:06:17;;;;;;;11.82;7.65;;;;;;;;;;6150148;22;20032;-68
2023/07/15 12:09:02;;;;;;;13.48;7.03;;;;;;;;;;6150207;22;20005;-68
2023/07/15 12:11:29;;;;;;;11.40;6.53;;;;;;;;;;6149511;22;20017;-70
2023/07/15 12:13:55;;;;;;;12.95;7.30;;;;;;;;;;6150424;22;20032;-69
2023/07/15 12:16:22;;;;;;;9.48;6.40;;;;;;;;;;6149676;22;20447;-70
2023/07/15 12:18:47;;;;;;;12.13;7.28;;;;;;;;;;6150077;22;20062;-69
2023/07/15 12:21:13;;;;;;;16.48;7.78;;;;;;;;;;6149967;22;20005;-70
2023/07/15 12:23:41;;;;;;;15.27;7.68;;;;;;;;;;6149587;22;20013;-69
2023/07/15 12:26:07;;;;;;;13.13;7.15;;;;;;;;;;6150307;23;20085;-70
2023/07/15 12:28:33;;;;;;;13.18;6.82;;;;;;;;;;6150302;23;20033;-70
2023/07/15 12:30:58;;;;;;;11.07;6.88;;;;;;;;;;6150356;22;20005;-69
2023/07/15 12:33:24;;;;;;;12.90;7.45;;;;;;;;;;6150070;22;20006;-69
2023/07/15 12:35:50;;;;;;;17.17;7.20;;;;;;;;;;6148404;23;20581;-70
2023/07/15 12:38:16;;;;;;;13.15;6.82;;;;;;;;;;6124777;23;20012;-70
2023/07/15 12:40:42;;;;;;;13.77;7.40;;;;;;;;;;6150153;23;20062;-70
2023/07/15 12:43:07;;;;;;;12.63;7.40;;;;;;;;;;6150239;22;20051;-70
2023/07/15 12:45:33;;;;;;;11.13;7.57;;;;;;;;;;6150815;22;20010;-69
2023/07/15 12:47:59;;;;;;;13.40;6.82;;;;;;;;;;6150274;23;20108;-70
2023/07/15 12:50:24;;;;;;;14.30;6.80;;;;;;;;;;6150650;22;20726;-69
2023/07/15 12:52:50;;;;;;;11.65;6.78;;;;;;;;;;6149718;22;20081;-69
2023/07/15 12:55:16;;;;;;;11.00;6.70;;;;;;;;;;6150296;22;20010;-69
2023/07/15 12:57:44;;;;;;;16.23;6.65;;;;;;;;;;6150762;22;20068;-70
2023/07/15 13:00:14;;;;;;;13.38;6.80;;;;;;;;;;6151077;22;20014;-70
2023/07/15 13:02:40;;;;;;;11.05;6.40;;;;;;;;;;6149612;23;20473;-71
2023/07/15 13:05:06;;;;;;;13.38;6.97;;;;;;;;;;6150309;22;20009;-69
2023/07/15 13:07:32;;;;;;;9.63;6.93;;;;;;;;;;6150388;23;20014;-70
2023/07/15 13:09:58;;;;;;;12.10;7.45;;;;;;;;;;6150033;23;20323;-68
2023/07/15 13:12:24;;;;;;;10.85;6.53;;;;;;;;;;6150120;22;20010;-69
2023/07/15 13:14:49;;;;;;;11.82;6.93;;;;;;;;;;6150087;23;20028;-69
2023/07/15 13:17:15;;;;;;;9.75;6.50;;;;;;;;;;6149145;23;20343;-70
2023/07/15 13:19:41;;;;;;;13.50;7.20;;;;;;;;;;6149923;22;20055;-68
2023/07/15 13:22:06;;;;;;;10.45;6.43;;;;;;;;;;6149295;22;20321;-69
2023/07/15 13:24:32;;;;;;;13.10;6.97;;;;;;;;;;6149635;22;20080;-68
2023/07/15 13:26:58;;;;;;;15.43;7.13;;;;;;;;;;6123563;23;20017;-69
2023/07/15 13:29:23;;;;;;;14.18;7.28;;;;;;;;;;6149936;22;20001;-69
2023/07/15 13:31:49;;;;;;;13.00;7.07;;;;;;;;;;6149118;22;20418;-69
2023/07/15 13:34:15;;;;;;;13.98;6.82;;;;;;;;;;6123367;22;20010;-69
2023/07/15 13:36:42;;;;;;;9.85;6.57;;;;;;;;;;6122002;22;20039;-68
2023/07/15 13:39:07;;;;;;;11.48;6.65;;;;;;;;;;6147598;23;20033;-70
2023/07/15 13:41:33;;;;;;;9.80;6.60;;;;;;;;;;6149081;22;20016;-70
2023/07/15 13:43:59;;;;;;;10.57;6.70;;;;;;;;;;6150011;22;20012;-69
2023/07/15 13:46:24;;;;;;;13.57;7.53;;;;;;;;;;6149604;23;20014;-69
2023/07/15 13:48:50;;;;;;;10.02;6.68;;;;;;;;;;6150218;23;20095;-69
2023/07/15 13:51:16;;;;;;;9.35;6.57;;;;;;;;;;6149808;22;20033;-69
2023/07/15 13:53:41;;;;;;;13.30;7.15;;;;;;;;;;6149697;23;20010;-69
2023/07/15 13:56:07;;;;;;;10.63;6.70;;;;;;;;;;6123853;23;20009;-69
2023/07/15 13:58:33;;;;;;;9.45;6.13;;;;;;;;;;6148494;22;20001;-69
2023/07/15 14:00:59;;;;;;;11.75;6.28;;;;;;;;;;6149653;22;20013;-68
2023/07/15 14:03:25;;;;;;;8.98;6.88;;;;;;;;;;6149460;22;20013;-68
2023/07/15 14:05:51;;;;;;;11.57;7.07;;;;;;;;;;6149768;23;20024;-69
2023/07/15 14:08:19;;;;;;;12.90;6.47;;;;;;;;;;6149336;22;20009;-69
2023/07/15 14:10:45;;;;;;;10.00;5.68;;;;;;;;;;6149371;23;20005;-69
2023/07/15 14:13:11;;;;;;;10.02;6.45;;;;;;;;;;6148349;23;20009;-69
2023/07/15 14:15:37;;;;;;;15.77;6.82;;;;;;;;;;6149384;22;20439;-69
2023/07/15 14:18:05;;;;;;;11.00;6.82;;;;;;;;;;6149718;22;20323;-69
2023/07/15 14:20:30;;;;;;;9.10;6.45;;;;;;;;;;6149218;22;20013;-69
2023/07/15 14:22:56;;;;;;;9.48;6.60;;;;;;;;;;6148887;22;20080;-68
2023/07/15 14:25:22;;;;;;;13.27;6.63;;;;;;;;;;6149574;22;20402;-69
2023/07/15 14:27:47;;;;;;;12.23;6.18;;;;;;;;;;6148693;22;20005;-69
2023/07/15 14:30:13;;;;;;;12.55;6.15;;;;;;;;;;6148208;22;20327;-69
2023/07/15 14:32:39;;;;;;;11.75;6.13;;;;;;;;;;6148906;23;20001;-69